createdAt,value
2019-03-24T00:02:13.090Z,67.33
2019-03-24T00:04:46.746Z,68.23
2019-03-24T00:07:21.695Z,68.10
2019-03-24T00:09:53.784Z,68.54
2019-03-24T00:12:29.435Z,67.28
2019-03-24T00:15:02.884Z,67.38
2019-03-24T00:17:38.039Z,67.31
2019-03-24T00:20:13.562Z,66.93
2019-03-24T00:22:47.854Z,68.13
2019-03-24T00:25:21.479Z,67.34
2019-03-24T00:27:57.121Z,68.69
2019-03-24T00:30:31.519Z,68.59
2019-03-24T00:33:07.770Z,68.16
2019-03-24T00:35:42.127Z,68.28
2019-03-24T00:38:14.479Z,68.14
2019-03-24T00:40:47.233Z,67.68
2019-03-24T00:43:20.709Z,67.88
2019-03-24T00:45:56.183Z,68.12
2019-03-24T00:48:30.777Z,68.17
2019-03-24T00:51:03.820Z,68.77
2019-03-24T00:53:36.914Z,68.65
2019-03-24T00:56:12.542Z,67.40
2019-03-24T00:58:48.546Z,68.01
2019-03-24T01:01:20.907Z,68.65
2019-03-24T01:03:55.278Z,68.29
2019-03-24T01:06:29.577Z,70.03
2019-03-24T01:09:02.111Z,69.73
2019-03-24T01:11:35.009Z,69.09
2019-03-24T01:14:09.780Z,69.69
2019-03-24T01:16:41.981Z,69.13
2019-03-24T01:19:14.590Z,68.79
2019-03-24T01:21:49.008Z,68.55
2019-03-24T01:24:21.176Z,68.48
2019-03-24T01:26:53.976Z,68.90
2019-03-24T01:29:27.010Z,69.00
2019-03-24T01:32:02.776Z,68.80
2019-03-24T01:34:37.016Z,68.56
2019-03-24T01:37:11.197Z,69.69
2019-03-24T01:39:44.012Z,69.68
2019-03-24T01:42:19.773Z,70.00
2019-03-24T01:44:53.215Z,69.88
2019-03-24T01:47:26.205Z,69.69
2019-03-24T01:50:00.780Z,71.07
2019-03-24T01:52:32.688Z,70.82
2019-03-24T01:55:06.352Z,70.48
2019-03-24T01:57:43.465Z,70.32
2019-03-24T02:00:15.381Z,70.32
2019-03-24T02:02:49.496Z,69.38
2019-03-24T02:05:23.255Z,70.89
2019-03-24T02:07:57.938Z,70.44
2019-03-24T02:10:31.277Z,69.95
2019-03-24T02:13:04.072Z,69.69
2019-03-24T02:15:37.300Z,69.08
2019-03-24T02:18:11.187Z,69.37
2019-03-24T02:20:46.870Z,68.72
2019-03-24T02:23:22.425Z,69.38
2019-03-24T02:25:55.795Z,69.00
2019-03-24T02:28:29.565Z,69.17
2019-03-24T02:31:03.566Z,68.65
2019-03-24T02:33:35.728Z,68.50
2019-03-24T02:36:11.734Z,68.50
2019-03-24T02:38:47.227Z,68.18
2019-03-24T02:41:18.984Z,68.53
2019-03-24T02:43:53.447Z,68.49
2019-03-24T02:46:26.363Z,68.66
2019-03-24T02:49:00.377Z,68.21
2019-03-24T02:51:34.502Z,68.41
2019-03-24T02:54:06.716Z,68.57
2019-03-24T02:56:38.480Z,69.26
2019-03-24T02:59:11.584Z,68.12
2019-03-24T03:01:46.440Z,68.67
2019-03-24T03:04:20.131Z,68.79
2019-03-24T03:06:53.250Z,68.47
2019-03-24T03:09:27.215Z,68.55
2019-03-24T03:11:59.547Z,68.56
2019-03-24T03:14:33.751Z,68.42
2019-03-24T03:17:07.152Z,68.31
2019-03-24T03:19:40.438Z,68.57
2019-03-24T03:22:14.639Z,67.61
2019-03-24T03:24:47.487Z,67.76
2019-03-24T03:27:21.628Z,67.97
2019-03-24T03:29:53.553Z,67.93
2019-03-24T03:32:25.784Z,68.16
2019-03-24T03:35:01.076Z,68.46
2019-03-24T03:37:34.070Z,68.38
2019-03-24T03:40:09.571Z,68.99
2019-03-24T03:42:43.442Z,68.62
2019-03-24T03:45:20.334Z,68.19
2019-03-24T03:47:56.010Z,68.92
2019-03-24T03:50:30.212Z,68.59
2019-03-24T03:53:04.807Z,68.70
2019-03-24T03:55:37.306Z,69.00
2019-03-24T03:58:12.880Z,69.05
2019-03-24T04:00:49.256Z,68.93
2019-03-24T04:03:23.867Z,69.50
2019-03-24T04:05:57.842Z,68.96
2019-03-24T04:08:30.633Z,69.16
2019-03-24T04:11:05.121Z,69.65
2019-03-24T04:13:39.086Z,69.85
2019-03-24T04:16:12.267Z,70.16
2019-03-24T04:18:45.837Z,71.08
2019-03-24T04:21:18.297Z,71.85
2019-03-24T04:23:55.222Z,71.87
2019-03-24T04:26:29.022Z,71.64
2019-03-24T04:29:03.347Z,71.88
2019-03-24T04:31:36.865Z,70.99
2019-03-24T04:34:10.508Z,71.14
2019-03-24T04:36:43.876Z,70.84
2019-03-24T04:39:15.623Z,70.02
2019-03-24T04:41:47.958Z,70.06
2019-03-24T04:44:20.797Z,70.06
2019-03-24T04:46:55.197Z,70.34
2019-03-24T04:49:27.102Z,70.85
2019-03-24T04:52:01.604Z,71.10
2019-03-24T04:54:36.100Z,71.25
2019-03-24T04:57:12.320Z,72.03
2019-03-24T04:59:47.648Z,71.96
2019-03-24T05:02:22.025Z,71.15
2019-03-24T05:04:58.300Z,71.15
2019-03-24T05:07:30.278Z,71.20
2019-03-24T05:10:04.313Z,71.24
2019-03-24T05:12:39.974Z,71.58
2019-03-24T05:15:14.213Z,72.25
2019-03-24T05:17:49.605Z,73.09
2019-03-24T05:20:21.555Z,74.37
2019-03-24T05:22:56.830Z,73.73
2019-03-24T05:25:31.718Z,74.04
2019-03-24T05:28:07.638Z,74.27
2019-03-24T05:30:42.803Z,75.22
2019-03-24T05:33:15.123Z,75.24
2019-03-24T05:35:48.840Z,74.56
2019-03-24T05:38:21.603Z,74.78
2019-03-24T05:40:54.568Z,74.19
2019-03-24T05:43:27.657Z,74.27
2019-03-24T05:46:00.238Z,74.48
2019-03-24T05:48:33.361Z,74.43
2019-03-24T05:51:07.799Z,74.01
2019-03-24T05:53:40.804Z,74.61
2019-03-24T05:56:14.163Z,74.36
2019-03-24T05:58:48.913Z,73.94
2019-03-24T06:01:22.652Z,74.49
2019-03-24T06:03:55.429Z,74.04
2019-03-24T06:06:28.640Z,73.93
2019-03-24T06:09:04.985Z,73.62
2019-03-24T06:11:40.881Z,73.78
2019-03-24T06:14:15.451Z,73.57
2019-03-24T06:16:51.913Z,73.13
2019-03-24T06:19:28.617Z,72.37
2019-03-24T06:22:02.795Z,72.29
2019-03-24T06:24:37.771Z,72.12
2019-03-24T06:27:11.725Z,72.40
2019-03-24T06:29:45.614Z,73.21
2019-03-24T06:32:20.392Z,73.28
2019-03-24T06:34:56.342Z,73.12
2019-03-24T06:37:32.924Z,72.34
2019-03-24T06:40:11.915Z,72.14
2019-03-24T06:42:50.620Z,71.90
2019-03-24T06:45:29.009Z,71.39
2019-03-24T06:48:05.632Z,71.88
2019-03-24T06:50:41.197Z,72.26
2019-03-24T06:53:15.188Z,71.55
2019-03-24T06:55:54.200Z,71.61
2019-03-24T06:58:29.178Z,72.35
2019-03-24T07:01:07.148Z,72.41
2019-03-24T07:03:40.134Z,72.12
2019-03-24T07:06:13.189Z,73.17
2019-03-24T07:08:46.874Z,73.26
2019-03-24T07:11:20.118Z,73.37
2019-03-24T07:13:55.923Z,72.51
2019-03-24T07:16:30.196Z,72.65
2019-03-24T07:19:03.949Z,72.62
2019-03-24T07:21:39.035Z,72.03
2019-03-24T07:24:12.632Z,71.64
2019-03-24T07:26:53.100Z,71.75
2019-03-24T07:29:29.662Z,71.50
2019-03-24T07:32:05.935Z,71.24
2019-03-24T07:34:43.158Z,71.41
2019-03-24T07:37:15.930Z,71.37
2019-03-24T07:39:50.538Z,71.75
2019-03-24T07:42:24.801Z,71.80
2019-03-24T07:44:58.557Z,70.50
2019-03-24T07:47:33.743Z,70.21
2019-03-24T07:50:11.945Z,69.57
2019-03-24T07:52:45.209Z,69.92
2019-03-24T07:55:19.394Z,69.44
2019-03-24T07:57:52.085Z,69.53
2019-03-24T08:00:34.206Z,69.86
2019-03-24T08:03:09.482Z,69.03
2019-03-24T08:05:44.183Z,69.26
2019-03-24T08:08:16.531Z,69.37
2019-03-24T08:10:52.800Z,69.16
2019-03-24T08:13:28.505Z,69.31
2019-03-24T08:16:05.349Z,68.58
2019-03-24T08:18:41.049Z,68.22
2019-03-24T08:21:13.807Z,67.49
2019-03-24T08:23:46.444Z,65.88
2019-03-24T08:26:19.473Z,65.18
2019-03-24T08:28:54.785Z,66.13
2019-03-24T08:31:28.805Z,66.72
2019-03-24T08:34:06.234Z,66.58
2019-03-24T08:36:43.178Z,67.10
2019-03-24T08:39:17.172Z,65.61
2019-03-24T08:41:53.369Z,64.59
2019-03-24T08:44:30.847Z,66.71
2019-03-24T08:47:04.775Z,65.81
2019-03-24T08:49:40.483Z,64.81
2019-03-24T08:52:19.589Z,63.96
2019-03-24T08:54:59.902Z,63.92
2019-03-24T08:57:35.747Z,65.69
2019-03-24T09:00:11.159Z,64.58
2019-03-24T09:02:46.179Z,65.06
2019-03-24T09:05:25.998Z,65.35
2019-03-24T09:08:02.860Z,63.49
2019-03-24T09:10:38.341Z,62.44
2019-03-24T09:13:20.452Z,63.63
2019-03-24T09:15:58.138Z,61.99
2019-03-24T09:18:33.382Z,61.10
2019-03-24T09:21:05.876Z,58.56
2019-03-24T09:23:39.040Z,59.55
2019-03-24T09:26:14.440Z,60.49
2019-03-24T09:28:49.473Z,59.63
2019-03-24T09:31:23.827Z,60.10
2019-03-24T09:33:59.678Z,60.12
2019-03-24T09:36:36.878Z,59.88
2019-03-24T09:39:10.380Z,60.59
2019-03-24T09:41:45.238Z,59.14
2019-03-24T09:44:19.409Z,58.15
2019-03-24T09:46:53.635Z,57.24
2019-03-24T09:49:27.599Z,57.41
2019-03-24T09:52:03.432Z,57.96
2019-03-24T09:54:36.792Z,57.43
2019-03-24T09:57:09.445Z,54.20
2019-03-24T09:59:46.307Z,55.94
2019-03-24T10:02:19.225Z,56.42
2019-03-24T10:04:54.930Z,54.49
2019-03-24T10:07:27.314Z,51.39
2019-03-24T10:10:00.817Z,51.75
2019-03-24T10:12:34.319Z,49.16
2019-03-24T10:15:09.812Z,49.64
2019-03-24T10:17:45.069Z,51.91
2019-03-24T10:20:20.159Z,50.81
2019-03-24T10:22:56.307Z,51.15
2019-03-24T10:25:31.575Z,51.39
2019-03-24T10:28:11.751Z,51.74
2019-03-24T10:30:48.285Z,48.45
2019-03-24T10:33:25.116Z,48.01
2019-03-24T10:36:01.419Z,49.52
2019-03-24T10:38:36.378Z,50.24
2019-03-24T10:41:10.910Z,46.75
2019-03-24T10:43:47.155Z,43.79
2019-03-24T10:46:23.445Z,43.02
2019-03-24T10:49:02.116Z,44.92
2019-03-24T10:51:38.174Z,44.33
2019-03-24T10:54:15.053Z,43.50
2019-03-24T10:56:51.035Z,43.40
2019-03-24T10:59:27.657Z,43.11
2019-03-24T11:02:10.579Z,42.37
2019-03-24T11:04:48.066Z,44.27
2019-03-24T11:07:25.793Z,44.55
2019-03-24T11:10:01.815Z,43.75
2019-03-24T11:12:39.826Z,40.98
2019-03-24T11:15:15.556Z,42.38
2019-03-24T11:17:52.089Z,42.25
2019-03-24T11:20:27.280Z,44.05
2019-03-24T11:23:01.885Z,44.46
2019-03-24T11:25:40.976Z,43.47
2019-03-24T11:28:19.386Z,43.83
2019-03-24T11:30:56.637Z,44.35
2019-03-24T11:33:31.428Z,42.01
2019-03-24T11:36:08.507Z,42.64
2019-03-24T11:38:44.682Z,41.95
2019-03-24T11:41:21.926Z,44.06
2019-03-24T11:44:00.501Z,44.04
2019-03-24T11:46:35.604Z,42.75
2019-03-24T11:49:18.383Z,45.29
2019-03-24T11:51:57.841Z,46.14
2019-03-24T11:54:35.204Z,45.70
2019-03-24T11:57:12.068Z,46.09
2019-03-24T11:59:47.123Z,46.19
2019-03-24T12:02:25.918Z,45.83
2019-03-24T12:05:00.346Z,46.53
2019-03-24T12:07:40.432Z,44.20
2019-03-24T12:10:18.000Z,43.36
2019-03-24T12:12:54.568Z,43.40
2019-03-24T12:15:30.762Z,43.64
2019-03-24T12:18:08.972Z,44.24
2019-03-24T12:20:47.315Z,44.96
2019-03-24T12:23:25.492Z,44.97
2019-03-24T12:26:02.016Z,43.96
2019-03-24T12:28:35.603Z,43.11
2019-03-24T12:38:13.058Z,44.06
2019-03-24T12:40:47.697Z,44.99
2019-03-24T12:43:22.739Z,44.21
2019-03-24T12:45:57.694Z,44.07
2019-03-24T12:48:32.578Z,46.45
2019-03-24T12:51:08.992Z,45.09
2019-03-24T12:53:43.637Z,44.51
2019-03-24T12:56:16.294Z,45.39
2019-03-24T12:58:52.115Z,45.81
2019-03-24T13:01:26.176Z,43.53
2019-03-24T13:03:58.743Z,43.10
2019-03-24T13:06:33.496Z,41.12
2019-03-24T13:09:08.941Z,37.68
2019-03-24T13:11:41.175Z,36.48
2019-03-24T13:14:14.229Z,35.83
2019-03-24T13:16:47.227Z,35.58
2019-03-24T13:19:19.308Z,35.29
2019-03-24T13:21:52.061Z,35.22
2019-03-24T13:24:25.707Z,35.89
2019-03-24T13:26:59.336Z,35.79
2019-03-24T13:29:33.166Z,35.27
2019-03-24T13:32:06.363Z,36.63
2019-03-24T13:34:40.314Z,35.78
2019-03-24T13:37:13.405Z,35.99
2019-03-24T13:39:47.505Z,36.31
2019-03-24T13:42:20.407Z,35.79
2019-03-24T13:44:56.525Z,37.50
2019-03-24T13:47:31.335Z,36.44
2019-03-24T13:50:04.942Z,36.95
2019-03-24T13:52:41.211Z,35.26
2019-03-24T13:55:15.434Z,35.77
2019-03-24T13:57:48.401Z,36.06
2019-03-24T14:00:21.394Z,36.18
2019-03-24T14:02:53.223Z,35.14
2019-03-24T14:05:28.049Z,33.88
2019-03-24T14:08:00.462Z,34.88
2019-03-24T14:10:34.831Z,34.48
2019-03-24T14:13:07.480Z,34.39
2019-03-24T14:15:40.477Z,34.66
2019-03-24T14:18:14.478Z,34.46
2019-03-24T14:20:48.115Z,33.98
2019-03-24T14:23:22.379Z,33.04
2019-03-24T14:25:55.517Z,32.98
2019-03-24T14:28:28.872Z,33.28
2019-03-24T14:31:02.519Z,32.23
2019-03-24T14:33:36.150Z,31.49
2019-03-24T14:36:10.184Z,32.05
2019-03-24T14:38:43.427Z,32.31
2019-03-24T14:41:15.784Z,32.15
2019-03-24T14:43:47.588Z,31.89
2019-03-24T14:46:20.862Z,31.77
2019-03-24T14:48:54.663Z,31.39
2019-03-24T14:51:32.390Z,31.54
2019-03-24T14:54:04.627Z,32.14
2019-03-24T14:56:38.665Z,31.97
2019-03-24T14:59:11.623Z,32.33
2019-03-24T15:01:47.579Z,32.32
2019-03-24T15:04:21.731Z,31.94
2019-03-24T15:06:55.728Z,30.07
2019-03-24T15:09:29.910Z,30.95
2019-03-24T15:12:02.762Z,31.01
2019-03-24T15:14:36.798Z,30.95
2019-03-24T15:17:11.433Z,32.08
2019-03-24T15:19:58.008Z,32.18
2019-03-24T15:22:31.694Z,31.50
2019-03-24T15:25:06.129Z,33.22
2019-03-24T15:27:40.170Z,33.09
2019-03-24T15:30:13.802Z,32.13
2019-03-24T15:32:46.757Z,31.85
2019-03-24T15:35:18.787Z,32.20
2019-03-24T15:37:51.663Z,32.51
2019-03-24T15:40:25.173Z,32.36
2019-03-24T15:42:59.285Z,32.33
2019-03-24T15:45:32.073Z,32.89
2019-03-24T15:48:05.630Z,32.73
2019-03-24T15:50:39.723Z,33.60
2019-03-24T15:53:12.127Z,33.62
2019-03-24T15:55:46.777Z,33.60
2019-03-24T15:58:19.381Z,34.10
2019-03-24T16:00:53.958Z,35.25
2019-03-24T16:03:27.699Z,35.98
2019-03-24T16:06:00.904Z,35.85
2019-03-24T16:08:34.691Z,36.51
2019-03-24T16:11:07.213Z,36.48
2019-03-24T16:13:40.917Z,36.62
2019-03-24T16:16:14.301Z,37.45
2019-03-24T16:18:47.947Z,37.26
2019-03-24T16:21:27.689Z,38.15
2019-03-24T16:23:54.941Z,38.99
2019-03-24T16:26:36.321Z,39.80
2019-03-24T16:29:12.669Z,40.29
2019-03-24T16:31:45.188Z,41.09
2019-03-24T16:34:20.155Z,41.78
2019-03-24T16:36:52.678Z,42.72
2019-03-24T16:39:25.167Z,43.04
2019-03-24T16:41:59.161Z,43.62
2019-03-24T16:44:33.164Z,44.20
2019-03-24T16:47:06.115Z,44.67
2019-03-24T16:49:40.231Z,44.90
2019-03-24T16:52:14.240Z,44.77
2019-03-24T16:54:47.413Z,45.24
2019-03-24T16:57:21.224Z,45.90
2019-03-24T16:59:54.210Z,46.20
2019-03-24T17:02:28.826Z,46.90
2019-03-24T17:05:02.832Z,47.73
2019-03-24T17:07:35.757Z,47.45
2019-03-24T17:10:09.713Z,48.72
2019-03-24T17:12:43.232Z,48.61
2019-03-24T17:15:15.709Z,48.64
2019-03-24T17:17:51.451Z,49.33
2019-03-24T17:20:23.358Z,50.46
2019-03-24T17:22:57.436Z,50.92
2019-03-24T17:25:30.266Z,51.15
2019-03-24T17:28:05.095Z,51.25
2019-03-24T17:30:37.324Z,52.47
2019-03-24T17:33:09.361Z,52.07
2019-03-24T17:35:42.035Z,52.41
2019-03-24T17:38:18.683Z,53.00
2019-03-24T17:40:52.337Z,53.69
2019-03-24T17:43:25.293Z,55.12
2019-03-24T17:45:59.187Z,56.39
2019-03-24T17:48:32.550Z,58.09
2019-03-24T17:51:04.692Z,58.95
2019-03-24T17:53:36.458Z,58.86
2019-03-24T17:56:10.659Z,59.38
2019-03-24T17:58:44.543Z,60.04
2019-03-24T18:01:16.807Z,60.09
2019-03-24T18:03:50.164Z,60.36
2019-03-24T18:06:24.631Z,60.16
2019-03-24T18:08:58.584Z,60.31
2019-03-24T18:11:32.622Z,60.87
2019-03-24T18:14:05.625Z,61.29
2019-03-24T18:16:39.631Z,60.58
2019-03-24T18:19:13.648Z,61.46
2019-03-24T18:21:46.851Z,61.65
2019-03-24T18:24:19.617Z,61.38
2019-03-24T18:26:52.963Z,61.26
2019-03-24T18:29:24.892Z,61.23
2019-03-24T18:31:58.598Z,61.31
2019-03-24T18:34:32.438Z,61.80
2019-03-24T18:37:05.608Z,61.88
2019-03-24T18:39:39.950Z,61.81
2019-03-24T18:42:15.465Z,61.97
2019-03-24T18:44:47.678Z,62.47
2019-03-24T18:47:20.561Z,62.22
2019-03-24T18:49:52.721Z,63.42
2019-03-24T18:52:25.748Z,63.48
2019-03-24T18:55:01.700Z,62.72
2019-03-24T18:57:35.047Z,63.02
2019-03-24T19:00:11.498Z,63.24
2019-03-24T19:02:44.710Z,63.70
2019-03-24T19:05:17.324Z,64.20
2019-03-24T19:08:01.819Z,63.75
2019-03-24T19:10:35.643Z,63.44
2019-03-24T19:13:08.851Z,64.06
2019-03-24T19:15:41.355Z,63.51
2019-03-24T19:18:15.655Z,63.50
2019-03-24T19:20:48.213Z,64.43
2019-03-24T19:23:21.629Z,64.95
2019-03-24T19:25:54.950Z,66.47
2019-03-24T19:28:28.772Z,67.06
2019-03-24T19:31:01.896Z,65.84
2019-03-24T19:33:35.399Z,65.10
2019-03-24T19:36:08.795Z,65.16
2019-03-24T19:38:43.722Z,64.90
2019-03-24T19:41:16.045Z,65.43
2019-03-24T19:43:49.715Z,65.13
2019-03-24T19:53:12.092Z,64.72
2019-03-24T19:55:44.271Z,64.68
2019-03-24T19:58:16.278Z,65.54
2019-03-24T20:00:51.260Z,65.28
2019-03-24T20:03:26.132Z,65.80
2019-03-24T20:05:58.435Z,65.89
2019-03-24T20:08:34.256Z,65.93
2019-03-24T20:11:08.187Z,65.18
2019-03-24T20:13:42.059Z,65.26
2019-03-24T20:16:15.915Z,65.13
2019-03-24T20:18:49.151Z,65.14
2019-03-24T20:21:24.235Z,64.97
2019-03-24T20:23:57.174Z,65.58
2019-03-24T20:26:30.855Z,65.23
2019-03-24T20:29:05.103Z,65.41
2019-03-24T20:32:13.096Z,66.33
2019-03-24T20:34:47.561Z,66.29
2019-03-24T20:37:19.446Z,66.31
2019-03-24T20:39:52.570Z,66.55
2019-03-24T20:42:24.911Z,66.64
2019-03-24T20:44:58.982Z,66.52
2019-03-24T20:47:33.834Z,66.17
2019-03-24T20:50:08.810Z,65.44
2019-03-24T20:52:44.302Z,67.35
2019-03-24T20:55:16.159Z,67.17
2019-03-24T20:57:51.354Z,66.84
2019-03-24T21:00:33.840Z,66.08
2019-03-24T21:03:09.771Z,67.02
2019-03-24T21:05:44.878Z,65.93
2019-03-24T21:08:16.646Z,65.97
2019-03-24T21:10:49.349Z,66.02
2019-03-24T21:13:22.369Z,65.46
2019-03-24T21:15:56.321Z,65.19
2019-03-24T21:18:30.035Z,64.98
2019-03-24T21:21:03.670Z,64.83
2019-03-24T21:23:37.343Z,65.14
2019-03-24T21:26:11.476Z,65.11
2019-03-24T21:28:44.447Z,65.04
2019-03-24T21:31:16.225Z,65.30
2019-03-24T21:33:49.375Z,65.11
2019-03-24T21:36:22.584Z,65.70
2019-03-24T21:38:59.391Z,65.79
2019-03-24T21:41:33.480Z,66.08
2019-03-24T21:44:08.160Z,66.50
2019-03-24T21:46:41.895Z,66.70
2019-03-24T21:49:16.683Z,67.03
2019-03-24T21:51:48.485Z,66.32
2019-03-24T21:54:22.455Z,67.70
2019-03-24T21:56:54.603Z,67.70
2019-03-24T21:59:28.498Z,67.80
2019-03-24T22:02:01.882Z,67.93
2019-03-24T22:04:34.939Z,66.96
2019-03-24T22:07:12.777Z,66.91
2019-03-24T22:09:45.571Z,66.58
2019-03-24T22:12:19.758Z,65.79
2019-03-24T22:14:53.316Z,66.08
2019-03-24T22:17:25.665Z,66.40
2019-03-24T22:19:59.665Z,67.36
2019-03-24T22:22:33.070Z,68.24
2019-03-24T22:25:10.138Z,70.09
2019-03-24T22:27:45.378Z,69.92
2019-03-24T22:30:17.220Z,70.57
2019-03-24T22:32:51.419Z,69.36
2019-03-24T22:35:25.276Z,68.87
2019-03-24T22:38:00.493Z,68.29
2019-03-24T22:40:35.527Z,67.81
2019-03-24T22:43:07.718Z,67.70
2019-03-24T22:45:41.157Z,67.90
2019-03-24T22:48:15.153Z,68.50
2019-03-24T22:50:47.697Z,68.92
2019-03-24T22:53:19.673Z,69.35
2019-03-24T22:55:54.594Z,69.74
2019-03-24T22:58:26.379Z,69.14
2019-03-24T23:00:59.799Z,70.12
2019-03-24T23:03:31.725Z,70.21
2019-03-24T23:06:06.109Z,69.87
2019-03-24T23:08:39.382Z,69.92
2019-03-24T23:11:13.948Z,72.14
2019-03-24T23:13:47.175Z,72.93
2019-03-24T23:16:19.788Z,74.39
2019-03-24T23:18:52.998Z,73.76
2019-03-24T23:21:27.198Z,73.57
2019-03-24T23:24:01.994Z,72.94
2019-03-24T23:26:34.974Z,73.76
2019-03-24T23:29:08.004Z,73.80
2019-03-24T23:31:42.205Z,73.93
2019-03-24T23:34:15.848Z,73.59
2019-03-24T23:36:49.928Z,72.53
2019-03-24T23:39:22.956Z,73.43
2019-03-24T23:41:54.919Z,74.19
2019-03-24T23:44:28.884Z,74.66
2019-03-24T23:47:03.238Z,73.92
2019-03-24T23:49:37.726Z,73.89
2019-03-24T23:52:10.138Z,74.35
2019-03-24T23:54:42.083Z,74.34
2019-03-24T23:57:14.080Z,74.07
2019-03-24T23:59:47.061Z,73.79
